createdAt,value
2018-07-07T00:01:08.922Z,101595.84
2018-07-07T00:03:37.097Z,101594.79
2018-07-07T00:06:05.360Z,101600.16
2018-07-07T00:08:33.588Z,101603.91
2018-07-07T00:11:01.782Z,101609.05
2018-07-07T00:13:30.109Z,101603.01
2018-07-07T00:15:58.296Z,101606.73
2018-07-07T00:18:26.567Z,101602.84
2018-07-07T00:20:54.804Z,101600.94
2018-07-07T00:23:23.065Z,101598.52
2018-07-07T00:25:51.271Z,101611.97
2018-07-07T00:28:19.539Z,101605.41
2018-07-07T00:30:47.761Z,101610.92
2018-07-07T00:33:16.048Z,101605.44
2018-07-07T00:35:48.447Z,101611.23
2018-07-07T00:38:16.676Z,101612.56
2018-07-07T00:40:44.852Z,101612.81
2018-07-07T00:43:13.088Z,101622.08
2018-07-07T00:45:41.254Z,101615.41
2018-07-07T00:48:09.438Z,101622.94
2018-07-07T00:50:37.687Z,101624.81
2018-07-07T00:53:06.176Z,101619.68
2018-07-07T00:55:34.390Z,101616.73
2018-07-07T00:58:02.580Z,101617.59
2018-07-07T01:01:03.884Z,101622.14
2018-07-07T01:03:32.230Z,101619.87
2018-07-07T01:06:00.761Z,101624.92
2018-07-07T01:08:28.971Z,101622.16
2018-07-07T01:10:57.158Z,101619.47
2018-07-07T01:13:25.345Z,101618.77
2018-07-07T01:15:53.548Z,101619.61
2018-07-07T01:18:21.735Z,101613.33
2018-07-07T01:20:49.939Z,101614.47
2018-07-07T01:23:18.259Z,101614.21
2018-07-07T01:25:46.865Z,101619.42
2018-07-07T01:28:15.558Z,101611.85
2018-07-07T01:30:43.756Z,101608.89
2018-07-07T01:33:11.975Z,101612.56
2018-07-07T01:35:40.199Z,101613.05
2018-07-07T01:38:08.573Z,101606.41
2018-07-07T01:40:36.777Z,101609.67
2018-07-07T01:43:04.930Z,101613.45
2018-07-07T01:45:33.104Z,101613.56
2018-07-07T01:48:01.251Z,101611.19
2018-07-07T01:50:29.427Z,101608.56
2018-07-07T01:52:57.566Z,101610.34
2018-07-07T01:55:25.840Z,101608.05
2018-07-07T01:57:54.123Z,101605.45
2018-07-07T02:00:22.411Z,101609.44
2018-07-07T02:02:50.557Z,101613.66
2018-07-07T02:05:18.730Z,101613.13
2018-07-07T02:07:46.955Z,101613.09
2018-07-07T02:10:15.088Z,101606.84
2018-07-07T02:12:43.244Z,101605.53
2018-07-07T02:15:11.392Z,101605.29
2018-07-07T02:17:39.572Z,101605.97
2018-07-07T02:20:07.753Z,101609.91
2018-07-07T02:22:36.063Z,101610.27
2018-07-07T02:25:04.314Z,101617.44
2018-07-07T02:27:32.482Z,101612.14
2018-07-07T02:30:00.801Z,101608.88
2018-07-07T02:32:29.038Z,101617.84
2018-07-07T02:34:57.206Z,101615.68
2018-07-07T02:37:25.475Z,101618.14
2018-07-07T02:39:53.701Z,101625.14
2018-07-07T02:42:22.033Z,101615.74
2018-07-07T02:44:50.393Z,101620.69
2018-07-07T02:47:18.610Z,101621.59
2018-07-07T02:49:46.889Z,101625.41
2018-07-07T02:52:15.281Z,101624.66
2018-07-07T02:54:43.496Z,101627.25
2018-07-07T02:57:11.662Z,101620.63
2018-07-07T02:59:39.810Z,101633.82
2018-07-07T03:02:08.043Z,101625.86
2018-07-07T03:04:37.109Z,101629.53
2018-07-07T03:07:05.374Z,101627.82
2018-07-07T03:09:33.650Z,101634.82
2018-07-07T03:12:01.988Z,101628.39
2018-07-07T03:14:30.260Z,101634.95
2018-07-07T03:16:58.500Z,101631.58
2018-07-07T03:19:26.768Z,101629.83
2018-07-07T03:21:55.082Z,101626.60
2018-07-07T03:24:23.366Z,101632.27
2018-07-07T03:26:51.838Z,101636.59
2018-07-07T03:29:20.037Z,101631.41
2018-07-07T03:31:48.205Z,101636.35
2018-07-07T03:34:16.421Z,101638.08
2018-07-07T03:36:44.761Z,101640.69
2018-07-07T03:39:12.985Z,101635.28
2018-07-07T03:41:41.204Z,101633.80
2018-07-07T03:44:09.358Z,101633.30
2018-07-07T03:46:37.545Z,101639.89
2018-07-07T03:49:06.074Z,101641.05
2018-07-07T03:51:34.283Z,101634.66
2018-07-07T03:54:02.454Z,101642.14
2018-07-07T03:56:30.633Z,101640.39
2018-07-07T03:58:58.848Z,101640.64
2018-07-07T04:01:27.016Z,101639.34
2018-07-07T04:03:55.198Z,101642.40
2018-07-07T04:06:23.376Z,101646.05
2018-07-07T04:08:51.571Z,101639.99
2018-07-07T04:11:19.788Z,101655.22
2018-07-07T04:13:48.237Z,101655.13
2018-07-07T04:16:16.485Z,101653.14
2018-07-07T04:18:44.755Z,101645.84
2018-07-07T04:21:13.031Z,101645.03
2018-07-07T04:23:41.212Z,101646.92
2018-07-07T04:26:09.383Z,101649.47
2018-07-07T04:28:37.594Z,101650.83
2018-07-07T04:31:05.779Z,101650.61
2018-07-07T04:33:34.050Z,101651.46
2018-07-07T04:36:02.348Z,101647.60
2018-07-07T04:38:30.727Z,101647.22
2018-07-07T04:40:58.964Z,101646.66
2018-07-07T04:43:27.132Z,101650.00
2018-07-07T04:45:55.365Z,101645.72
2018-07-07T04:48:23.510Z,101656.45
2018-07-07T04:50:51.818Z,101654.45
2018-07-07T04:53:20.023Z,101652.92
2018-07-07T04:55:48.286Z,101648.95
2018-07-07T04:58:16.513Z,101653.87
2018-07-07T05:00:44.745Z,101650.41
2018-07-07T05:03:12.960Z,101655.99
2018-07-07T05:05:41.238Z,101656.83
2018-07-07T05:08:09.429Z,101663.34
2018-07-07T05:10:37.716Z,101657.08
2018-07-07T05:13:06.030Z,101663.05
2018-07-07T05:15:34.322Z,101664.02
2018-07-07T05:18:02.580Z,101662.42
2018-07-07T05:20:30.780Z,101662.11
2018-07-07T05:22:59.129Z,101662.67
2018-07-07T05:25:27.345Z,101661.56
2018-07-07T05:27:56.317Z,101661.48
2018-07-07T05:30:24.540Z,101659.69
2018-07-07T05:32:52.760Z,101667.54
2018-07-07T05:35:20.966Z,101665.16
2018-07-07T05:37:49.153Z,101658.29
2018-07-07T05:40:17.321Z,101666.91
2018-07-07T05:42:45.528Z,101668.27
2018-07-07T05:45:13.774Z,101669.97
2018-07-07T05:47:42.060Z,101675.98
2018-07-07T05:50:10.288Z,101672.55
2018-07-07T05:52:38.469Z,101675.59
2018-07-07T05:55:06.692Z,101673.16
2018-07-07T05:57:34.907Z,101668.30
2018-07-07T06:00:03.107Z,101674.93
2018-07-07T06:02:31.298Z,101673.75
2018-07-07T06:04:59.491Z,101672.38
2018-07-07T06:07:27.662Z,101671.70
2018-07-07T06:09:55.872Z,101672.84
2018-07-07T06:12:24.137Z,101673.77
2018-07-07T06:14:52.464Z,101672.87
2018-07-07T06:17:20.760Z,101695.85
2018-07-07T06:19:48.952Z,101684.18
2018-07-07T06:22:17.141Z,101682.05
2018-07-07T06:24:45.395Z,101680.94
2018-07-07T06:27:13.590Z,101681.06
2018-07-07T06:29:41.773Z,101677.36
2018-07-07T06:32:09.980Z,101679.27
2018-07-07T06:34:38.208Z,101677.36
2018-07-07T06:37:06.410Z,101670.11
2018-07-07T06:39:34.641Z,101674.42
2018-07-07T06:42:02.858Z,101682.91
2018-07-07T06:44:31.324Z,101671.80
2018-07-07T06:46:59.493Z,101671.63
2018-07-07T06:49:27.717Z,101666.08
2018-07-07T06:51:55.914Z,101671.73
2018-07-07T06:54:24.235Z,101674.06
2018-07-07T06:56:52.532Z,101674.73
2018-07-07T06:59:20.758Z,101674.51
2018-07-07T07:01:48.968Z,101672.94
2018-07-07T07:04:17.135Z,101672.73
2018-07-07T07:06:45.360Z,101676.02
2018-07-07T07:09:13.599Z,101678.96
2018-07-07T07:11:42.114Z,101689.71
2018-07-07T07:14:10.292Z,101680.77
2018-07-07T07:16:38.515Z,101685.25
2018-07-07T07:19:07.084Z,101683.58
2018-07-07T07:21:35.384Z,101693.70
2018-07-07T07:24:03.725Z,101688.88
2018-07-07T07:26:31.892Z,101692.03
2018-07-07T07:29:00.163Z,101699.16
2018-07-07T07:31:28.462Z,101702.94
2018-07-07T07:33:56.630Z,101693.31
2018-07-07T07:36:36.310Z,101697.31
2018-07-07T07:39:05.167Z,101697.95
2018-07-07T07:41:33.507Z,101696.33
2018-07-07T07:44:01.893Z,101699.59
2018-07-07T07:46:30.414Z,101701.20
2018-07-07T07:48:58.607Z,101695.81
2018-07-07T07:51:27.021Z,101710.63
2018-07-07T07:53:55.435Z,101696.70
2018-07-07T07:56:23.617Z,101695.31
2018-07-07T07:58:51.906Z,101694.92
2018-07-07T08:01:20.164Z,101693.84
2018-07-07T08:03:48.354Z,101689.59
2018-07-07T08:06:16.558Z,101686.67
2018-07-07T08:08:44.787Z,101692.39
2018-07-07T08:11:13.007Z,101692.41
2018-07-07T08:13:41.204Z,101691.80
2018-07-07T08:16:10.232Z,101693.69
2018-07-07T08:18:38.426Z,101690.77
2018-07-07T08:21:06.636Z,101688.83
2018-07-07T08:23:34.857Z,101682.20
2018-07-07T08:26:03.031Z,101694.16
2018-07-07T08:28:31.353Z,101692.23
2018-07-07T08:30:59.461Z,101705.25
2018-07-07T08:33:27.700Z,101707.42
2018-07-07T08:35:55.939Z,101696.55
2018-07-07T08:38:24.279Z,101692.22
2018-07-07T08:40:52.602Z,101699.08
2018-07-07T08:43:21.661Z,101699.13
2018-07-07T08:45:50.094Z,101712.73
2018-07-07T08:48:18.261Z,101697.74
2018-07-07T08:50:46.586Z,101704.84
2018-07-07T08:53:20.208Z,101692.88
2018-07-07T08:55:48.514Z,101694.31
2018-07-07T08:58:16.669Z,101697.55
2018-07-07T09:00:44.864Z,101700.59
2018-07-07T09:03:13.056Z,101691.58
2018-07-07T09:05:45.883Z,101709.30
2018-07-07T09:08:20.547Z,101701.66
2018-07-07T09:11:00.962Z,101690.97
2018-07-07T09:13:29.298Z,101696.78
2018-07-07T09:16:05.894Z,101689.40
2018-07-07T09:18:34.392Z,101700.61
2018-07-07T09:21:02.768Z,101705.47
2018-07-07T09:23:40.785Z,101697.86
2018-07-07T09:26:09.064Z,101686.16
2018-07-07T09:28:37.400Z,101679.08
2018-07-07T09:31:06.082Z,101676.09
2018-07-07T09:33:34.299Z,101674.73
2018-07-07T09:36:02.561Z,101679.34
2018-07-07T09:38:30.930Z,101680.45
2018-07-07T09:40:59.091Z,101677.70
2018-07-07T09:43:27.282Z,101672.78
2018-07-07T09:45:55.580Z,101673.89
2018-07-07T09:48:24.818Z,101675.81
2018-07-07T09:50:53.139Z,101670.38
2018-07-07T09:53:21.531Z,101669.53
2018-07-07T09:55:49.893Z,101671.70
2018-07-07T09:58:18.372Z,101698.14
2018-07-07T10:00:46.713Z,101684.53
2018-07-07T10:03:15.220Z,101682.89
2018-07-07T10:05:44.788Z,101680.69
2018-07-07T10:08:13.252Z,101694.89
2018-07-07T10:10:41.705Z,101688.34
2018-07-07T10:13:10.204Z,101691.88
2018-07-07T10:15:38.408Z,101697.30
2018-07-07T10:18:06.745Z,101702.24
2018-07-07T10:20:35.266Z,101697.31
2018-07-07T10:23:03.561Z,101686.14
2018-07-07T10:25:32.506Z,101689.09
2018-07-07T10:28:01.053Z,101693.50
2018-07-07T10:30:29.451Z,101695.66
2018-07-07T10:32:59.074Z,101694.80
2018-07-07T10:35:27.378Z,101687.65
2018-07-07T10:37:55.681Z,101707.87
2018-07-07T10:40:23.921Z,101697.32
2018-07-07T10:42:52.507Z,101702.72
2018-07-07T10:45:20.919Z,101691.52
2018-07-07T10:47:49.128Z,101703.21
2018-07-07T10:50:17.610Z,101690.91
2018-07-07T10:52:46.208Z,101701.80
2018-07-07T10:55:14.750Z,101698.60
2018-07-07T10:57:43.226Z,101693.84
2018-07-07T11:00:11.740Z,101689.49
2018-07-07T11:02:39.994Z,101687.27
2018-07-07T11:05:08.240Z,101688.17
2018-07-07T11:07:36.588Z,101696.05
2018-07-07T11:10:05.410Z,101696.92
2018-07-07T11:12:33.950Z,101700.50
2018-07-07T11:15:02.441Z,101697.64
2018-07-07T11:17:30.686Z,101700.35
2018-07-07T11:19:58.920Z,101698.42
2018-07-07T11:22:27.268Z,101690.00
2018-07-07T11:24:55.659Z,101695.71
2018-07-07T11:27:24.347Z,101703.31
2018-07-07T11:29:52.952Z,101698.73
2018-07-07T11:32:21.533Z,101713.45
2018-07-07T11:34:50.598Z,101695.61
2018-07-07T11:37:19.407Z,101703.84
2018-07-07T11:39:48.849Z,101702.76
2018-07-07T11:42:17.532Z,101706.05
2018-07-07T11:44:46.141Z,101695.38
2018-07-07T11:47:14.539Z,101703.97
2018-07-07T11:49:43.356Z,101685.13
2018-07-07T11:52:12.000Z,101689.58
2018-07-07T11:54:40.336Z,101690.97
2018-07-07T11:57:08.496Z,101690.16
2018-07-07T11:59:36.984Z,101686.34
2018-07-07T12:02:05.732Z,101698.27
2018-07-07T12:04:34.232Z,101697.67
2018-07-07T12:07:02.553Z,101686.48
2018-07-07T12:09:31.104Z,101688.30
2018-07-07T12:11:59.684Z,101689.81
2018-07-07T12:14:27.983Z,101687.72
2018-07-07T12:16:56.232Z,101684.14
2018-07-07T12:19:24.965Z,101694.76
2018-07-07T12:21:53.774Z,101687.08
2018-07-07T12:24:22.253Z,101687.63
2018-07-07T12:26:51.108Z,101684.06
2018-07-07T12:29:19.601Z,101692.13
2018-07-07T12:31:47.844Z,101686.09
2018-07-07T12:34:16.483Z,101685.50
2018-07-07T12:36:45.116Z,101688.19
2018-07-07T12:39:13.322Z,101682.15
2018-07-07T12:41:41.547Z,101690.95
2018-07-07T12:44:09.833Z,101683.70
2018-07-07T12:46:38.563Z,101706.28
2018-07-07T12:49:07.443Z,101694.97
2018-07-07T12:51:36.018Z,101702.70
2018-07-07T12:54:04.516Z,101692.97
2018-07-07T12:56:33.198Z,101709.98
2018-07-07T13:02:17.977Z,101692.31
2018-07-07T13:04:46.132Z,101702.17
2018-07-07T13:07:14.334Z,101701.08
2018-07-07T13:09:42.524Z,101704.91
2018-07-07T13:12:10.832Z,101700.70
2018-07-07T13:14:39.048Z,101698.54
2018-07-07T13:17:07.864Z,101694.92
2018-07-07T13:19:36.058Z,101697.82
2018-07-07T13:22:04.329Z,101696.99
2018-07-07T13:24:32.585Z,101690.59
2018-07-07T13:27:00.813Z,101692.47
2018-07-07T13:29:29.059Z,101706.20
2018-07-07T13:31:57.243Z,101706.05
2018-07-07T13:34:25.558Z,101700.73
2018-07-07T13:36:53.808Z,101705.73
2018-07-07T13:39:22.053Z,101701.83
2018-07-07T13:41:50.317Z,101699.00
2018-07-07T13:44:18.556Z,101689.56
2018-07-07T13:46:46.798Z,101688.05
2018-07-07T13:49:15.139Z,101704.59
2018-07-07T13:51:43.386Z,101698.66
2018-07-07T13:54:12.468Z,101696.52
2018-07-07T13:56:40.757Z,101698.38
2018-07-07T13:59:08.957Z,101694.21
2018-07-07T14:01:37.296Z,101692.16
2018-07-07T14:04:05.494Z,101698.60
2018-07-07T14:06:33.700Z,101703.36
2018-07-07T14:09:01.961Z,101690.13
2018-07-07T14:11:30.246Z,101685.20
2018-07-07T14:13:58.498Z,101680.56
2018-07-07T14:16:26.901Z,101690.97
2018-07-07T14:18:55.090Z,101682.70
2018-07-07T14:21:23.284Z,101688.52
2018-07-07T14:23:51.460Z,101680.85
2018-07-07T14:26:19.669Z,101685.98
2018-07-07T14:28:47.848Z,101686.89
2018-07-07T14:31:16.208Z,101683.88
2018-07-07T14:33:44.433Z,101670.71
2018-07-07T14:36:12.812Z,101691.19
2018-07-07T14:38:40.989Z,101693.86
2018-07-07T14:41:16.164Z,101684.51
2018-07-07T14:43:52.887Z,101690.27
2018-07-07T14:46:21.547Z,101678.78
2018-07-07T14:48:49.729Z,101678.00
2018-07-07T14:51:18.094Z,101700.62
2018-07-07T14:53:46.631Z,101689.62
2018-07-07T14:56:15.353Z,101691.52
2018-07-07T14:58:43.737Z,101683.11
2018-07-07T15:01:12.457Z,101696.20
2018-07-07T15:03:41.077Z,101703.59
2018-07-07T15:06:09.509Z,101697.93
2018-07-07T15:08:37.812Z,101692.59
2018-07-07T15:11:06.914Z,101698.35
2018-07-07T15:13:35.140Z,101699.84
2018-07-07T15:16:03.432Z,101698.79
2018-07-07T15:18:32.302Z,101703.63
2018-07-07T15:21:00.633Z,101701.61
2018-07-07T15:23:28.952Z,101693.08
2018-07-07T15:25:57.263Z,101698.61
2018-07-07T15:28:25.469Z,101695.39
2018-07-07T15:30:53.821Z,101685.56
2018-07-07T15:33:21.978Z,101697.81
2018-07-07T15:35:50.185Z,101703.08
2018-07-07T15:38:18.433Z,101700.97
2018-07-07T15:40:46.749Z,101698.87
2018-07-07T15:43:14.972Z,101703.80
2018-07-07T15:45:43.205Z,101697.81
2018-07-07T15:48:11.475Z,101692.18
2018-07-07T15:50:39.679Z,101699.31
2018-07-07T15:53:07.881Z,101694.78
2018-07-07T15:55:36.086Z,101699.66
2018-07-07T15:58:04.413Z,101698.52
2018-07-07T16:00:32.704Z,101696.25
2018-07-07T16:03:00.877Z,101697.72
2018-07-07T16:05:29.081Z,101682.27
2018-07-07T16:07:57.229Z,101688.61
2018-07-07T16:10:25.505Z,101699.98
2018-07-07T16:12:53.767Z,101693.30
2018-07-07T16:15:22.066Z,101688.09
2018-07-07T16:17:50.352Z,101686.73
2018-07-07T16:20:18.645Z,101679.79
2018-07-07T16:22:46.874Z,101683.23
2018-07-07T16:25:15.172Z,101688.55
2018-07-07T16:27:43.376Z,101690.06
2018-07-07T16:30:11.594Z,101685.94
2018-07-07T16:32:39.797Z,101698.11
2018-07-07T16:35:08.036Z,101695.34
2018-07-07T16:37:36.312Z,101705.30
2018-07-07T16:40:04.741Z,101708.47
2018-07-07T16:42:35.253Z,101712.05
2018-07-07T16:45:03.573Z,101703.02
2018-07-07T16:47:31.847Z,101696.78
2018-07-07T16:50:00.090Z,101693.75
2018-07-07T16:52:28.802Z,101702.53
2018-07-07T16:54:57.140Z,101695.34
2018-07-07T16:57:25.390Z,101704.45
2018-07-07T16:59:54.127Z,101695.80
2018-07-07T17:02:22.321Z,101693.41
2018-07-07T17:04:50.534Z,101694.24
2018-07-07T17:07:19.773Z,101691.67
2018-07-07T17:09:48.012Z,101692.62
2018-07-07T17:12:16.245Z,101698.17
2018-07-07T17:14:44.452Z,101694.04
2018-07-07T17:17:12.677Z,101690.20
2018-07-07T17:19:40.914Z,101700.25
2018-07-07T17:22:09.148Z,101698.20
2018-07-07T17:24:37.341Z,101701.69
2018-07-07T17:27:05.595Z,101699.36
2018-07-07T17:29:33.881Z,101698.84
2018-07-07T17:32:02.758Z,101697.23
2018-07-07T17:34:30.959Z,101701.69
2018-07-07T17:36:59.256Z,101707.33
2018-07-07T17:39:27.860Z,101702.57
2018-07-07T17:41:56.091Z,101697.40
2018-07-07T17:44:24.329Z,101697.77
2018-07-07T17:46:52.541Z,101700.91
2018-07-07T17:49:20.854Z,101699.08
2018-07-07T17:51:49.097Z,101698.56
2018-07-07T17:54:17.316Z,101700.05
2018-07-07T17:56:45.770Z,101696.25
2018-07-07T17:59:13.946Z,101697.17
2018-07-07T18:01:42.271Z,101695.70
2018-07-07T18:04:10.473Z,101700.41
2018-07-07T18:06:38.690Z,101707.56
2018-07-07T18:09:07.270Z,101704.68
2018-07-07T18:11:35.474Z,101702.75
2018-07-07T18:14:03.690Z,101703.84
2018-07-07T18:16:31.848Z,101708.34
2018-07-07T18:19:00.212Z,101719.61
2018-07-07T18:21:28.487Z,101714.38
2018-07-07T18:23:56.777Z,101708.56
2018-07-07T18:26:25.075Z,101715.58
2018-07-07T18:28:53.285Z,101709.09
2018-07-07T18:31:21.433Z,101710.50
2018-07-07T18:33:49.645Z,101716.20
2018-07-07T18:36:17.875Z,101714.47
2018-07-07T18:38:46.110Z,101717.52
2018-07-07T18:41:14.382Z,101715.37
2018-07-07T18:43:42.671Z,101704.58
2018-07-07T18:46:10.931Z,101709.44
2018-07-07T18:48:39.112Z,101709.78
2018-07-07T18:51:07.277Z,101714.48
2018-07-07T18:53:35.529Z,101734.66
2018-07-07T18:56:03.714Z,101730.31
2018-07-07T18:58:32.175Z,101725.95
2018-07-07T19:01:00.381Z,101724.60
2018-07-07T19:03:28.621Z,101718.30
2018-07-07T19:05:56.877Z,101719.12
2018-07-07T19:08:25.031Z,101720.20
2018-07-07T19:10:53.298Z,101722.94
2018-07-07T19:13:21.576Z,101729.76
2018-07-07T19:15:49.810Z,101731.11
2018-07-07T19:18:18.161Z,101731.12
2018-07-07T19:20:51.839Z,101735.22
2018-07-07T19:23:25.613Z,101737.94
2018-07-07T19:25:59.043Z,101731.68
2018-07-07T19:28:27.330Z,101729.75
2018-07-07T19:30:55.595Z,101738.19
2018-07-07T19:33:29.270Z,101738.67
2018-07-07T19:36:02.781Z,101737.41
2018-07-07T19:38:31.013Z,101734.67
2018-07-07T19:40:59.174Z,101733.84
2018-07-07T19:43:27.318Z,101736.03
2018-07-07T19:45:55.549Z,101735.73
2018-07-07T19:48:23.758Z,101741.47
2018-07-07T19:50:51.941Z,101741.99
2018-07-07T19:53:20.162Z,101745.81
2018-07-07T19:55:48.365Z,101752.03
2018-07-07T19:58:16.540Z,101755.64
2018-07-07T20:00:44.735Z,101757.41
2018-07-07T20:03:13.614Z,101760.25
2018-07-07T20:05:41.936Z,101756.66
2018-07-07T20:08:10.475Z,101758.45
2018-07-07T20:10:38.662Z,101758.16
2018-07-07T20:13:07.000Z,101753.14
2018-07-07T20:15:46.768Z,101757.36
2018-07-07T20:18:14.942Z,101753.75
2018-07-07T20:20:57.412Z,101753.05
2018-07-07T20:23:26.318Z,101749.11
2018-07-07T20:25:59.973Z,101745.59
2018-07-07T20:28:33.614Z,101752.70
2018-07-07T20:31:01.802Z,101753.86
2018-07-07T20:33:30.281Z,101746.11
2018-07-07T20:35:58.578Z,101739.36
2018-07-07T20:38:26.792Z,101739.00
2018-07-07T20:40:55.176Z,101740.12
2018-07-07T20:43:23.453Z,101737.07
2018-07-07T20:45:51.687Z,101742.63
2018-07-07T20:48:19.913Z,101742.04
2018-07-07T20:50:48.123Z,101752.08
2018-07-07T20:53:16.381Z,101748.20
2018-07-07T20:55:44.581Z,101736.97
2018-07-07T20:58:13.585Z,101734.84
2018-07-07T21:00:41.728Z,101737.83
2018-07-07T21:03:09.926Z,101743.30
2018-07-07T21:05:38.096Z,101744.80
2018-07-07T21:08:06.358Z,101745.66
2018-07-07T21:10:36.438Z,101743.45
2018-07-07T21:13:04.700Z,101734.70
2018-07-07T21:15:33.069Z,101741.86
2018-07-07T21:18:01.404Z,101736.83
2018-07-07T21:20:29.568Z,101738.55
2018-07-07T21:22:57.736Z,101748.09
2018-07-07T21:25:26.395Z,101750.77
2018-07-07T21:27:54.603Z,101748.17
2018-07-07T21:30:22.875Z,101746.39
2018-07-07T21:32:51.162Z,101750.65
2018-07-07T21:35:19.502Z,101749.01
2018-07-07T21:37:47.786Z,101748.66
2018-07-07T21:40:16.728Z,101745.88
2018-07-07T21:42:44.936Z,101758.08
2018-07-07T21:45:13.166Z,101752.94
2018-07-07T21:47:41.373Z,101754.19
2018-07-07T21:50:09.561Z,101747.34
2018-07-07T21:52:37.721Z,101752.10
2018-07-07T21:55:06.048Z,101758.17
2018-07-07T21:57:39.576Z,101761.28
2018-07-07T22:00:07.876Z,101757.92
2018-07-07T22:02:41.474Z,101748.87
2018-07-07T22:05:15.007Z,101760.53
2018-07-07T22:07:43.184Z,101760.09
2018-07-07T22:10:11.372Z,101753.48
2018-07-07T22:12:39.583Z,101754.02
2018-07-07T22:15:07.786Z,101756.38
2018-07-07T22:17:35.920Z,101754.92
2018-07-07T22:20:04.118Z,101751.53
2018-07-07T22:22:32.379Z,101759.66
2018-07-07T22:25:00.641Z,101755.42
2018-07-07T22:27:28.800Z,101762.75
2018-07-07T22:29:57.122Z,101753.95
2018-07-07T22:32:25.292Z,101752.89
2018-07-07T22:34:53.713Z,101753.78
2018-07-07T22:37:21.939Z,101752.93
2018-07-07T22:39:50.115Z,101749.22
2018-07-07T22:42:19.368Z,101747.63
2018-07-07T22:44:48.574Z,101745.42
2018-07-07T22:47:16.786Z,101745.10
2018-07-07T22:49:44.988Z,101743.05
2018-07-07T22:52:13.157Z,101736.97
2018-07-07T22:54:41.335Z,101730.64
2018-07-07T22:57:09.521Z,101730.05
2018-07-07T22:59:37.813Z,101730.41
2018-07-07T23:02:06.172Z,101726.86
2018-07-07T23:04:34.462Z,101724.19
2018-07-07T23:07:02.745Z,101726.81
2018-07-07T23:09:30.982Z,101731.70
2018-07-07T23:11:59.173Z,101724.51
2018-07-07T23:14:27.348Z,101721.45
2018-07-07T23:16:59.560Z,101725.61
2018-07-07T23:19:28.045Z,101717.11
2018-07-07T23:21:56.651Z,101719.25
2018-07-07T23:24:24.837Z,101720.19
2018-07-07T23:26:53.345Z,101722.90
2018-07-07T23:29:21.651Z,101726.94
2018-07-07T23:31:49.947Z,101727.44
2018-07-07T23:34:18.255Z,101728.26
2018-07-07T23:36:46.607Z,101731.38
2018-07-07T23:39:15.095Z,101730.43
2018-07-07T23:41:43.296Z,101720.11
2018-07-07T23:44:11.526Z,101721.20
2018-07-07T23:46:39.723Z,101725.00
2018-07-07T23:49:07.942Z,101727.91
2018-07-07T23:51:36.115Z,101724.95
2018-07-07T23:54:04.380Z,101724.58
2018-07-07T23:56:32.554Z,101716.67
2018-07-07T23:59:00.857Z,101716.75
